createdAt,value
2023-02-03T00:02:50.856Z,1.20
2023-02-03T00:05:54.624Z,1.10
2023-02-03T00:08:59.471Z,1.20
2023-02-03T00:12:02.025Z,1.30
2023-02-03T00:15:04.941Z,1.07
2023-02-03T00:18:07.473Z,0.87
2023-02-03T00:21:10.200Z,0.85
2023-02-03T00:24:12.686Z,0.88
2023-02-03T00:27:15.195Z,1.00
2023-02-03T00:30:18.100Z,1.00
2023-02-03T00:33:20.673Z,1.00
2023-02-03T00:36:24.004Z,1.25
2023-02-03T00:39:26.593Z,0.88
2023-02-03T00:42:29.145Z,0.77
2023-02-03T00:45:31.727Z,1.17
2023-02-03T00:48:34.276Z,0.87
2023-02-03T00:51:36.773Z,1.17
2023-02-03T00:54:39.301Z,0.40
2023-02-03T00:57:41.902Z,0.45
2023-02-03T01:00:46.110Z,1.50
2023-02-03T01:03:48.770Z,0.88
2023-02-03T01:06:56.294Z,0.88
2023-02-03T01:09:59.000Z,0.80
2023-02-03T01:13:01.748Z,0.87
2023-02-03T01:16:07.862Z,0.70
2023-02-03T01:19:10.553Z,1.10
2023-02-03T01:22:14.102Z,0.80
2023-02-03T01:25:16.671Z,0.93
2023-02-03T01:28:19.324Z,0.77
2023-02-03T01:31:25.028Z,0.88
2023-02-03T01:34:27.953Z,0.75
2023-02-03T01:37:30.461Z,0.73
2023-02-03T01:40:33.024Z,0.50
2023-02-03T01:43:41.923Z,0.70
2023-02-03T01:46:50.315Z,0.75
2023-02-03T01:50:15.250Z,0.75
2023-02-03T01:53:19.547Z,0.23
2023-02-03T01:56:23.307Z,0.50
2023-02-03T01:59:26.701Z,0.63
2023-02-03T02:02:29.515Z,0.80
2023-02-03T02:05:36.382Z,0.70
2023-02-03T02:08:42.104Z,0.20
2023-02-03T02:11:44.670Z,0.90
2023-02-03T02:14:48.132Z,0.70
2023-02-03T02:18:02.427Z,0.47
2023-02-03T02:21:41.107Z,0.52
2023-02-03T02:24:43.629Z,0.60
2023-02-03T02:28:33.069Z,0.82
2023-02-03T02:31:44.678Z,0.28
2023-02-03T02:34:53.680Z,0.33
2023-02-03T02:38:21.152Z,0.50
2023-02-03T02:41:29.895Z,1.23
2023-02-03T02:44:39.154Z,0.73
2023-02-03T02:47:42.121Z,0.70
2023-02-03T02:50:48.137Z,0.70
2023-02-03T02:53:57.182Z,0.70
2023-02-03T02:57:05.772Z,0.57
2023-02-03T03:00:09.304Z,0.53
2023-02-03T03:03:12.912Z,0.60
2023-02-03T03:06:29.199Z,0.45
2023-02-03T03:09:41.702Z,1.13
2023-02-03T03:12:53.560Z,0.73
2023-02-03T03:15:59.039Z,0.68
2023-02-03T03:19:10.210Z,0.35
2023-02-03T03:22:16.533Z,0.40
2023-02-03T03:25:28.357Z,0.60
2023-02-03T03:28:39.176Z,0.32
2023-02-03T03:31:42.403Z,0.38
2023-02-03T03:34:45.112Z,0.30
2023-02-03T03:38:07.162Z,0.40
2023-02-03T03:41:35.479Z,0.70
2023-02-03T03:45:03.535Z,0.30
2023-02-03T03:48:16.584Z,0.50
2023-02-03T03:51:28.561Z,0.63
2023-02-03T03:54:32.685Z,0.50
2023-02-03T03:57:45.415Z,0.75
2023-02-03T04:00:49.185Z,0.30
2023-02-03T04:04:02.203Z,0.70
2023-02-03T04:07:04.839Z,0.73
2023-02-03T04:10:22.280Z,0.63
2023-02-03T04:13:24.925Z,0.60
2023-02-03T04:16:27.576Z,0.90
2023-02-03T04:19:30.547Z,0.90
2023-02-03T04:22:33.117Z,0.70
2023-02-03T04:25:35.636Z,0.80
2023-02-03T04:28:38.214Z,0.95
2023-02-03T04:31:41.200Z,0.98
2023-02-03T04:34:43.704Z,0.50
2023-02-03T04:37:46.927Z,0.80
2023-02-03T04:40:49.960Z,1.30
2023-02-03T04:43:52.506Z,1.02
2023-02-03T04:46:54.937Z,1.02
2023-02-03T04:49:57.630Z,1.23
2023-02-03T04:53:00.595Z,1.57
2023-02-03T04:56:03.603Z,2.10
2023-02-03T04:59:06.088Z,1.45
2023-02-03T05:02:08.641Z,2.67
2023-02-03T05:05:11.154Z,2.13
2023-02-03T05:08:13.752Z,1.60
2023-02-03T05:11:16.321Z,1.65
2023-02-03T05:14:19.070Z,1.83
2023-02-03T05:17:21.583Z,0.53
2023-02-03T05:20:24.567Z,1.10
2023-02-03T05:23:27.238Z,0.98
2023-02-03T05:26:30.143Z,1.10
2023-02-03T05:29:32.656Z,1.10
2023-02-03T05:32:35.227Z,0.68
2023-02-03T05:35:37.759Z,0.85
2023-02-03T05:38:40.220Z,0.63
2023-02-03T05:41:56.556Z,0.37
2023-02-03T05:44:59.688Z,0.75
2023-02-03T05:48:04.859Z,0.45
2023-02-03T05:51:07.465Z,0.87
2023-02-03T05:54:10.879Z,0.93
2023-02-03T05:57:13.604Z,0.40
2023-02-03T06:00:16.547Z,1.25
2023-02-03T06:03:19.147Z,0.77
2023-02-03T06:06:21.701Z,0.40
2023-02-03T06:09:24.522Z,0.52
2023-02-03T06:12:28.365Z,0.70
2023-02-03T06:15:31.806Z,1.30
2023-02-03T06:18:34.336Z,0.67
2023-02-03T06:21:36.885Z,0.50
2023-02-03T06:24:39.386Z,0.60
2023-02-03T06:27:42.476Z,1.15
2023-02-03T06:30:45.211Z,0.63
2023-02-03T06:33:47.870Z,0.70
2023-02-03T06:36:50.513Z,0.70
2023-02-03T06:39:52.971Z,0.30
2023-02-03T06:42:56.645Z,0.82
2023-02-03T06:46:00.298Z,0.43
2023-02-03T06:49:03.923Z,0.60
2023-02-03T06:52:08.191Z,0.60
2023-02-03T06:55:11.231Z,0.93
2023-02-03T06:58:13.954Z,0.50
2023-02-03T07:01:16.644Z,0.63
2023-02-03T07:04:19.287Z,0.70
2023-02-03T07:07:23.879Z,0.52
2023-02-03T07:10:26.900Z,0.83
2023-02-03T07:13:29.576Z,0.90
2023-02-03T07:16:32.798Z,1.20
2023-02-03T07:19:35.462Z,0.90
2023-02-03T07:22:40.803Z,1.05
2023-02-03T07:25:44.252Z,1.40
2023-02-03T07:28:47.181Z,0.80
2023-02-03T07:31:51.650Z,0.80
2023-02-03T07:34:54.342Z,0.90
2023-02-03T07:37:56.894Z,0.80
2023-02-03T07:40:59.403Z,0.80
2023-02-03T07:44:02.011Z,0.77
2023-02-03T07:47:04.522Z,1.02
2023-02-03T07:50:07.406Z,0.70
2023-02-03T07:53:10.497Z,1.02
2023-02-03T07:56:13.086Z,0.90
2023-02-03T07:59:17.393Z,0.70
2023-02-03T08:02:19.821Z,0.70
2023-02-03T08:05:22.337Z,0.82
2023-02-03T08:08:24.973Z,0.88
2023-02-03T08:11:27.474Z,1.20
2023-02-03T08:14:31.301Z,1.00
2023-02-03T08:17:33.835Z,1.70
2023-02-03T08:20:36.446Z,0.95
2023-02-03T08:23:39.087Z,1.38
2023-02-03T08:26:41.811Z,1.37
2023-02-03T08:29:46.011Z,1.80
2023-02-03T08:32:49.308Z,1.98
2023-02-03T08:35:52.001Z,2.35
2023-02-03T08:38:54.598Z,1.83
2023-02-03T08:41:57.351Z,2.00
2023-02-03T08:44:59.947Z,1.85
2023-02-03T08:48:02.545Z,2.05
2023-02-03T08:51:13.408Z,1.85
2023-02-03T08:54:16.081Z,2.30
2023-02-03T08:57:18.632Z,2.30
2023-02-03T09:00:21.698Z,1.88
2023-02-03T09:03:25.590Z,2.13
2023-02-03T09:06:30.088Z,1.83
2023-02-03T09:09:34.530Z,2.75
2023-02-03T09:12:37.041Z,1.70
2023-02-03T09:15:39.919Z,1.67
2023-02-03T09:18:42.652Z,1.70
2023-02-03T09:21:47.166Z,1.70
2023-02-03T09:24:51.472Z,2.38
2023-02-03T09:27:54.134Z,2.00
2023-02-03T09:31:04.326Z,2.38
2023-02-03T09:34:07.097Z,2.45
2023-02-03T09:37:09.984Z,2.50
2023-02-03T09:40:35.252Z,3.40
2023-02-03T09:43:53.800Z,3.13
2023-02-03T09:47:28.625Z,3.85
2023-02-03T09:50:35.188Z,3.30
2023-02-03T09:53:45.586Z,3.40
2023-02-03T09:56:52.637Z,4.10
2023-02-03T09:59:58.566Z,3.33
2023-02-03T10:03:25.429Z,12.13
2023-02-03T10:06:42.047Z,9.18
2023-02-03T10:10:03.411Z,3.70
2023-02-03T10:13:32.166Z,4.38
2023-02-03T10:16:59.588Z,4.45
2023-02-03T10:20:05.340Z,4.93
2023-02-03T10:23:14.751Z,5.20
2023-02-03T10:26:22.924Z,5.13
2023-02-03T10:29:36.271Z,6.10
2023-02-03T10:32:39.929Z,7.25
2023-02-03T10:35:48.131Z,7.10
2023-02-03T10:39:07.502Z,5.85
2023-02-03T10:42:13.361Z,5.55
2023-02-03T10:45:16.359Z,5.93
2023-02-03T10:48:19.889Z,6.30
2023-02-03T10:51:30.720Z,6.13
2023-02-03T10:54:35.676Z,7.05
2023-02-03T10:57:39.535Z,7.28
2023-02-03T11:00:42.224Z,7.50
2023-02-03T11:03:56.084Z,6.57
2023-02-03T11:07:09.446Z,6.70
2023-02-03T11:10:37.509Z,6.65
2023-02-03T11:13:40.480Z,6.70
2023-02-03T11:16:44.622Z,8.30
2023-02-03T11:19:49.593Z,8.30
2023-02-03T11:22:52.401Z,8.40
2023-02-03T11:25:55.840Z,7.25
2023-02-03T11:29:00.870Z,6.35
2023-02-03T11:32:22.433Z,7.30
2023-02-03T11:35:27.224Z,7.05
2023-02-03T11:38:40.366Z,9.10
2023-02-03T11:41:43.111Z,7.32
2023-02-03T11:44:45.717Z,8.60
2023-02-03T11:47:54.098Z,8.18
2023-02-03T11:51:17.614Z,9.82
2023-02-03T11:54:23.101Z,8.30
2023-02-03T11:57:39.006Z,8.60
2023-02-03T12:00:57.245Z,7.38
2023-02-03T12:04:02.582Z,7.18
2023-02-03T12:07:32.935Z,7.60
2023-02-03T12:11:13.762Z,7.43
2023-02-03T12:14:22.376Z,6.33
2023-02-03T12:17:41.527Z,5.85
2023-02-03T12:21:05.455Z,5.53
2023-02-03T12:24:16.364Z,5.60
2023-02-03T12:27:43.352Z,4.97
2023-02-03T12:30:54.308Z,5.15
2023-02-03T12:34:06.892Z,4.65
2023-02-03T12:37:16.631Z,4.82
2023-02-03T12:40:47.692Z,4.57
2023-02-03T12:43:55.131Z,5.10
2023-02-03T12:47:07.642Z,3.75
2023-02-03T12:50:32.329Z,4.38
2023-02-03T12:53:40.036Z,4.33
2023-02-03T12:56:45.241Z,3.93
2023-02-03T12:59:58.459Z,3.63
2023-02-03T13:03:39.980Z,5.38
2023-02-03T13:06:51.567Z,6.05
2023-02-03T13:10:03.835Z,5.80
2023-02-03T13:13:11.865Z,3.85
2023-02-03T13:16:16.815Z,4.15
2023-02-03T13:19:23.121Z,3.70
2023-02-03T13:22:26.710Z,4.23
2023-02-03T13:25:50.873Z,4.50
2023-02-03T13:29:14.902Z,3.60
2023-02-03T13:32:29.264Z,4.50
2023-02-03T13:36:09.742Z,5.63
2023-02-03T13:39:40.466Z,5.72
2023-02-03T13:43:06.137Z,4.80
2023-02-03T13:46:25.208Z,4.93
2023-02-03T13:49:33.017Z,5.53
2023-02-03T13:52:45.753Z,5.23
2023-02-03T13:56:00.462Z,4.07
2023-02-03T13:59:13.846Z,4.90
2023-02-03T14:02:19.318Z,5.00
2023-02-03T14:05:40.535Z,4.43
2023-02-03T14:08:49.393Z,4.33
2023-02-03T14:12:12.496Z,5.60
2023-02-03T14:15:20.949Z,5.65
2023-02-03T14:18:49.599Z,4.93
2023-02-03T14:21:55.618Z,5.30
2023-02-03T14:25:06.030Z,5.03
2023-02-03T14:28:17.957Z,6.07
2023-02-03T14:31:23.148Z,5.38
2023-02-03T14:34:51.765Z,5.57
2023-02-03T14:38:02.034Z,5.27
2023-02-03T14:41:05.649Z,5.68
2023-02-03T14:44:30.150Z,5.38
2023-02-03T14:47:35.265Z,5.45
2023-02-03T14:50:49.555Z,6.17
2023-02-03T14:53:52.282Z,4.63
2023-02-03T14:57:21.724Z,4.95
2023-02-03T15:00:25.541Z,4.90
2023-02-03T15:03:30.470Z,3.20
2023-02-03T15:06:42.045Z,3.10
2023-02-03T15:09:47.310Z,3.33
2023-02-03T15:12:54.500Z,3.58
2023-02-03T15:16:01.318Z,3.97
2023-02-03T15:19:09.711Z,3.90
2023-02-03T15:22:19.457Z,3.67
2023-02-03T15:25:25.543Z,3.93
2023-02-03T15:28:30.374Z,4.32
2023-02-03T15:31:48.956Z,5.07
2023-02-03T15:34:53.543Z,3.88
2023-02-03T15:38:01.431Z,3.97
2023-02-03T15:41:11.185Z,4.55
2023-02-03T15:44:33.033Z,3.33
2023-02-03T15:47:46.875Z,3.30
2023-02-03T15:50:59.131Z,2.90
2023-02-03T15:54:15.789Z,2.97
2023-02-03T15:57:25.468Z,2.65
2023-02-03T16:00:33.352Z,3.40
2023-02-03T16:03:56.970Z,3.50
2023-02-03T16:07:00.734Z,3.67
2023-02-03T16:10:03.667Z,2.93
2023-02-03T16:13:24.139Z,2.50
2023-02-03T16:16:31.940Z,1.98
2023-02-03T16:19:38.494Z,1.48
2023-02-03T16:22:42.304Z,1.37
2023-02-03T16:26:21.851Z,2.00
2023-02-03T16:29:48.075Z,2.10
2023-02-03T16:33:27.454Z,1.10
2023-02-03T16:36:48.793Z,1.95
2023-02-03T16:40:09.692Z,1.40
2023-02-03T16:43:34.287Z,1.88
2023-02-03T16:46:56.085Z,2.33
2023-02-03T16:50:21.539Z,1.90
2023-02-03T16:53:30.656Z,2.73
2023-02-03T16:56:33.740Z,2.50
2023-02-03T16:59:36.482Z,2.28
2023-02-03T17:02:39.148Z,2.70
2023-02-03T17:05:44.547Z,3.25
2023-02-03T17:08:47.489Z,3.50
2023-02-03T17:11:52.146Z,3.50
2023-02-03T17:14:58.568Z,2.63
2023-02-03T17:18:02.004Z,2.67
2023-02-03T17:21:07.499Z,4.30
2023-02-03T17:24:10.288Z,3.77
2023-02-03T17:27:13.480Z,4.10
2023-02-03T17:30:16.856Z,3.85
2023-02-03T17:33:19.542Z,3.22
2023-02-03T17:36:22.550Z,3.72
2023-02-03T17:56:19.663Z,2.63
2023-02-03T17:59:22.387Z,3.08
2023-02-03T18:02:24.900Z,3.30
2023-02-03T18:05:29.474Z,3.10
2023-02-03T18:08:33.243Z,4.47
2023-02-03T18:11:37.552Z,5.07
2023-02-03T18:14:41.139Z,3.38
2023-02-03T18:17:43.761Z,3.35
2023-02-03T18:20:46.333Z,2.60
2023-02-03T18:23:51.374Z,3.00
2023-02-03T18:26:54.676Z,2.47
2023-02-03T18:29:57.552Z,2.63
2023-02-03T18:33:02.009Z,2.80
2023-02-03T18:36:06.972Z,2.53
2023-02-03T18:39:12.408Z,2.45
2023-02-03T18:42:15.717Z,2.03
2023-02-03T18:45:18.561Z,1.73
2023-02-03T18:48:21.421Z,1.30
2023-02-03T18:51:26.907Z,0.60
2023-02-03T18:54:30.195Z,0.77
2023-02-03T18:57:32.624Z,0.33
2023-02-03T19:00:35.371Z,0.38
2023-02-03T19:03:38.843Z,0.40
2023-02-03T19:06:45.541Z,0.52
2023-02-03T19:09:48.144Z,1.13
2023-02-03T19:12:50.818Z,0.73
2023-02-03T19:15:54.059Z,0.88
2023-02-03T19:18:57.189Z,0.60
2023-02-03T19:21:59.949Z,0.80
2023-02-03T19:25:02.896Z,0.70
2023-02-03T19:28:14.234Z,0.90
2023-02-03T19:31:20.174Z,0.20
2023-02-03T19:34:23.451Z,0.40
2023-02-03T19:37:26.722Z,0.57
2023-02-03T19:40:31.622Z,0.45
2023-02-03T19:43:34.399Z,0.20
2023-02-03T19:46:37.602Z,0.00
2023-02-03T19:49:40.893Z,0.25
2023-02-03T19:52:45.039Z,0.28
2023-02-03T19:55:48.380Z,0.20
2023-02-03T19:58:53.776Z,0.20
2023-02-03T20:01:58.109Z,0.45
2023-02-03T20:05:02.634Z,0.20
2023-02-03T20:08:06.075Z,0.45
2023-02-03T20:11:09.098Z,0.20
2023-02-03T20:14:12.615Z,0.80
2023-02-03T20:17:15.779Z,0.30
2023-02-03T20:20:20.709Z,0.55
2023-02-03T20:23:25.802Z,0.30
2023-02-03T20:26:29.701Z,0.28
2023-02-03T20:29:32.511Z,0.20
2023-02-03T20:32:36.773Z,0.30
2023-02-03T20:35:40.001Z,0.60
2023-02-03T20:38:43.112Z,0.20
2023-02-03T20:41:47.949Z,0.30
2023-02-03T20:44:52.208Z,0.10
2023-02-03T20:47:55.677Z,0.28
2023-02-03T20:50:58.823Z,0.45
2023-02-03T20:54:01.825Z,0.20
2023-02-03T20:57:12.061Z,0.30
2023-02-03T21:00:16.617Z,0.17
2023-02-03T21:03:39.018Z,0.43
2023-02-03T21:06:42.585Z,0.35
2023-02-03T21:09:47.067Z,1.02
2023-02-03T21:12:50.266Z,0.50
2023-02-03T21:16:00.177Z,0.30
2023-02-03T21:19:03.677Z,0.43
2023-02-03T21:22:26.826Z,0.40
2023-02-03T21:25:33.205Z,0.50
2023-02-03T21:28:36.872Z,0.30
2023-02-03T21:31:41.280Z,0.60
2023-02-03T21:34:45.278Z,0.50
2023-02-03T21:37:48.617Z,0.50
2023-02-03T21:40:52.711Z,0.30
2023-02-03T21:43:57.696Z,0.65
2023-02-03T21:47:05.265Z,0.77
2023-02-03T21:50:26.945Z,0.63
2023-02-03T21:53:35.497Z,0.40
2023-02-03T21:56:41.405Z,0.88
2023-02-03T21:59:49.208Z,0.35
2023-02-03T22:02:59.499Z,0.60
2023-02-03T22:06:34.948Z,0.60
2023-02-03T22:09:37.735Z,1.00
2023-02-03T22:12:40.501Z,0.80
2023-02-03T22:15:43.491Z,0.60
2023-02-03T22:18:47.381Z,0.77
2023-02-03T22:21:50.988Z,0.85
2023-02-03T22:24:53.532Z,1.13
2023-02-03T22:27:56.162Z,0.93
2023-02-03T22:30:58.740Z,0.73
2023-02-03T22:34:01.379Z,0.83
2023-02-03T22:37:03.835Z,0.85
2023-02-03T22:40:06.641Z,0.30
2023-02-03T22:43:09.133Z,0.73
2023-02-03T22:46:11.883Z,0.63
2023-02-03T22:49:14.581Z,0.80
2023-02-03T22:52:17.092Z,0.70
2023-02-03T22:55:20.479Z,0.88
2023-02-03T22:58:23.075Z,0.80
2023-02-03T23:01:25.617Z,1.13
2023-02-03T23:04:28.127Z,1.30
2023-02-03T23:07:31.491Z,1.00
2023-02-03T23:10:34.314Z,0.73
2023-02-03T23:13:37.154Z,0.90
2023-02-03T23:16:39.723Z,0.98
2023-02-03T23:19:42.232Z,1.00
2023-02-03T23:22:45.277Z,0.70
2023-02-03T23:25:47.740Z,1.25
2023-02-03T23:28:50.452Z,0.88
2023-02-03T23:31:53.149Z,1.00
2023-02-03T23:35:14.362Z,1.13
2023-02-03T23:38:17.808Z,0.57
2023-02-03T23:41:20.289Z,1.17
2023-02-03T23:44:23.842Z,1.38
2023-02-03T23:47:26.399Z,1.70
2023-02-03T23:50:29.669Z,0.80
2023-02-03T23:53:32.385Z,1.00
2023-02-03T23:56:34.872Z,0.90
2023-02-03T23:59:37.889Z,1.08
